Time;durP1;ratioP1;P1;durP2;ratioP2;P2;SDS_P1;SDS_P2;PMS_P1;PMS_P2;Temp;Humidity;BMP_temperature;BMP_pressure;BME280_temperature;BME280_humidity;BME280_pressure;Samples;Min_cycle;Max_cycle;Signal;HPM_P1;HPM_P2
2022/09/21 00:00:13;;;;;;;;;;;;;;;;;;1892174;28;7092;-68
2022/09/21 00:01:12;;;;;;;;;;;;;;;;;;1889357;28;7017;-67
2022/09/21 00:02:11;;;;;;;;;;;;;;;;;;1890826;28;7038;-68
2022/09/21 00:03:08;;;;;;;;;;;;;;;;;;1882428;28;7100;-68
2022/09/21 00:04:05;;;;;;;;;;;;;;;;;;1881734;28;7010;-67
2022/09/21 00:05:05;;;;;;;;;;;;;;;;;;1891507;28;7009;-67
2022/09/21 00:06:06;;;;;;;;;;;;;;;;;;1890729;28;7010;-66
2022/09/21 00:07:03;;;;;;;;;;;;;;;;;;1890817;28;7094;-69
2022/09/21 00:08:05;;;;;;;;;;;;;;;;;;1889578;28;7042;-68
2022/09/21 00:09:04;;;;;;;;;;;;;;;;;;1889133;28;7022;-68
2022/09/21 00:10:01;;;;;;;;;;;;;;;;;;1889059;28;7014;-68
2022/09/21 00:10:59;;;;;;;;;;;;;;;;;;1894956;28;7050;-67
2022/09/21 00:11:56;;;;;;;;;;;;;;;;;;1897165;28;7097;-68
2022/09/21 00:12:55;;;;;;;;;;;;;;;;;;1895421;28;8999;-68
2022/09/21 00:13:59;;;;;;;;;;;;;;;;;;1884847;28;7338;-67
2022/09/21 00:14:57;;;;;;;;;;;;;;;;;;1881835;28;7096;-69
2022/09/21 00:15:55;;;;;;;;;;;;;;;;;;1880569;28;7085;-68
2022/09/21 00:16:52;;;;;;;;;;;;;;;;;;1875747;28;7117;-67
2022/09/21 00:17:52;;;;;;;;;;;;;;;;;;1880363;28;7429;-68
2022/09/21 00:18:49;;;;;;;;;;;;;;;;;;1883118;28;7153;-67
2022/09/21 00:19:46;;;;;;;;;;;;;;;;;;1885667;28;7120;-68
2022/09/21 00:20:44;;;;;;;;;;;;;;;;;;1888435;28;7030;-68
2022/09/21 00:21:41;;;;;;;;;;;;;;;;;;1888639;28;7132;-68
2022/09/21 00:22:39;;;;;;;;;;;;;;;;;;1874497;28;7109;-69
2022/09/21 00:23:36;;;;;;;;;;;;;;;;;;1874547;28;7013;-70
2022/09/21 00:24:34;;;;;;;;;;;;;;;;;;1880771;28;7006;-66
2022/09/21 00:25:31;;;;;;;;;;;;;;;;;;1881844;28;7025;-68
2022/09/21 00:26:29;;;;;;;;;;;;;;;;;;1882237;28;7010;-68
2022/09/21 00:27:28;;;;;;;;;;;;;;;;;;1883383;28;7017;-67
2022/09/21 00:28:26;;;;;;;;;;;;;;;;;;1882067;28;7096;-67
2022/09/21 00:29:23;;;;;;;;;;;;;;;;;;1881854;28;7010;-67
2022/09/21 00:30:21;;;;;;;;;;;;;;;;;;1881904;28;7014;-69
2022/09/21 00:31:18;;;;;;;;;;;;;;;;;;1885530;28;7026;-68
2022/09/21 00:32:16;;;;;;;;;;;;;;;;;;1884010;28;7018;-65
2022/09/21 00:33:13;;;;;;;;;;;;;;;;;;1881430;28;7097;-67
2022/09/21 00:34:10;;;;;;;;;;;;;;;;;;1879654;28;8088;-69
2022/09/21 00:35:08;;;;;;;;;;;;;;;;;;1882952;28;7360;-65
2022/09/21 00:36:07;;;;;;;;;;;;;;;;;;1881534;28;8033;-68
2022/09/21 00:37:04;;;;;;;;;;;;;;;;;;1881634;28;7966;-66
2022/09/21 00:38:02;;;;;;;;;;;;;;;;;;1881652;28;7010;-67
2022/09/21 00:39:00;;;;;;;;;;;;;;;;;;1882608;28;7006;-67
2022/09/21 00:39:57;;;;;;;;;;;;;;;;;;1882119;28;7043;-66
2022/09/21 00:40:55;;;;;;;;;;;;;;;;;;1881751;28;7033;-69
2022/09/21 00:41:52;;;;;;;;;;;;;;;;;;1881634;28;7365;-67
2022/09/21 00:42:50;;;;;;;;;;;;;;;;;;1881892;28;7038;-69
2022/09/21 00:44:07;;;;;;;;;;;;;;;;;;1881769;28;7022;-67
2022/09/21 00:45:05;;;;;;;;;;;;;;;;;;1881551;28;7030;-68
2022/09/21 00:46:05;;;;;;;;;;;;;;;;;;1881713;28;7081;-69
2022/09/21 00:47:09;;;;;;;;;;;;;;;;;;1882006;28;7118;-67
2022/09/21 00:48:07;;;;;;;;;;;;;;;;;;1888108;28;7084;-69
2022/09/21 00:49:05;;;;;;;;;;;;;;;;;;1889354;28;8103;-69
2022/09/21 00:50:07;;;;;;;;;;;;;;;;;;1889378;28;7010;-67
2022/09/21 00:51:07;;;;;;;;;;;;;;;;;;1886938;28;7010;-67
2022/09/21 00:52:05;;;;;;;;;;;;;;;;;;1882312;28;7010;-68
2022/09/21 00:53:03;;;;;;;;;;;;;;;;;;1878287;28;7089;-67
2022/09/21 00:54:04;;;;;;;;;;;;;;;;;;1874274;28;7451;-67
2022/09/21 00:55:16;;;;;;;;;;;;;;;;;;1882134;28;7100;-67
2022/09/21 00:56:14;;;;;;;;;;;;;;;;;;1888453;28;7010;-68
2022/09/21 00:57:14;;;;;;;;;;;;;;;;;;1888748;28;7874;-69
2022/09/21 00:58:19;;;;;;;;;;;;;;;;;;1884502;28;7092;-67
2022/09/21 00:59:17;;;;;;;;;;;;;;;;;;1884414;28;8582;-68
2022/09/21 01:00:18;;;;;;;;;;;;;;;;;;1881923;28;7045;-66
2022/09/21 01:01:17;;;;;;;;;;;;;;;;;;1882069;28;8091;-68
2022/09/21 01:02:16;;;;;;;;;;;;;;;;;;1883503;28;7018;-67
2022/09/21 01:03:13;;;;;;;;;;;;;;;;;;1875790;28;7038;-68
2022/09/21 01:04:12;;;;;;;;;;;;;;;;;;1881256;28;7106;-68
2022/09/21 01:05:10;;;;;;;;;;;;;;;;;;1888293;28;7005;-65
2022/09/21 01:06:08;;;;;;;;;;;;;;;;;;1889392;28;7084;-68
2022/09/21 01:07:11;;;;;;;;;;;;;;;;;;1888569;28;7026;-67
2022/09/21 01:08:11;;;;;;;;;;;;;;;;;;1885222;28;7005;-66
2022/09/21 01:09:09;;;;;;;;;;;;;;;;;;1887489;28;7017;-66
2022/09/21 01:10:13;;;;;;;;;;;;;;;;;;1889451;28;7301;-67
2022/09/21 01:11:28;;;;;;;;;;;;;;;;;;1887287;28;7117;-67
2022/09/21 01:12:37;;;;;;;;;;;;;;;;;;1888284;28;7034;-68
2022/09/21 01:13:35;;;;;;;;;;;;;;;;;;1888219;28;7092;-67
2022/09/21 01:14:32;;;;;;;;;;;;;;;;;;1896753;28;7109;-66
2022/09/21 01:15:48;;;;;;;;;;;;;;;;;;1895871;28;7835;-67
2022/09/21 01:16:51;;;;;;;;;;;;;;;;;;1896426;28;8455;-68
2022/09/21 01:18:10;;;;;;;;;;;;;;;;;;1896670;28;7038;-67
2022/09/21 01:19:10;;;;;;;;;;;;;;;;;;1896723;28;7224;-66
2022/09/21 01:20:11;;;;;;;;;;;;;;;;;;1896064;28;7093;-65
2022/09/21 01:21:23;;;;;;;;;;;;;;;;;;1896534;28;7013;-69
2022/09/21 01:22:29;;;;;;;;;;;;;;;;;;1896418;28;7009;-67
2022/09/21 01:23:29;;;;;;;;;;;;;;;;;;1896566;28;7092;-66
2022/09/21 01:24:37;;;;;;;;;;;;;;;;;;1896525;28;7010;-68
2022/09/21 01:25:47;;;;;;;;;;;;;;;;;;1896402;28;7081;-69
2022/09/21 01:26:59;;;;;;;;;;;;;;;;;;1896923;28;7092;-69
2022/09/21 01:28:06;;;;;;;;;;;;;;;;;;1896874;28;7112;-68
2022/09/21 01:29:14;;;;;;;;;;;;;;;;;;1897962;28;7116;-69
2022/09/21 01:30:14;;;;;;;;;;;;;;;;;;1898321;28;8051;-67
2022/09/21 01:31:18;;;;;;;;;;;;;;;;;;1898087;28;8027;-67
2022/09/21 01:32:28;;;;;;;;;;;;;;;;;;1897407;28;7010;-69
2022/09/21 01:33:32;;;;;;;;;;;;;;;;;;1896561;28;7025;-68
2022/09/21 01:34:37;;;;;;;;;;;;;;;;;;1897882;28;7093;-68
2022/09/21 01:35:40;;;;;;;;;;;;;;;;;;1897025;28;7116;-68
2022/09/21 01:36:40;;;;;;;;;;;;;;;;;;1896766;28;7340;-67
2022/09/21 01:37:42;;;;;;;;;;;;;;;;;;1896686;28;7005;-67
2022/09/21 01:38:48;;;;;;;;;;;;;;;;;;1897678;28;7069;-68
2022/09/21 01:39:50;;;;;;;;;;;;;;;;;;1897930;28;8098;-66
2022/09/21 01:40:54;;;;;;;;;;;;;;;;;;1897856;28;7001;-69
2022/09/21 01:41:54;;;;;;;;;;;;;;;;;;1897913;28;7073;-68
2022/09/21 01:42:54;;;;;;;;;;;;;;;;;;1896744;28;7005;-68
2022/09/21 01:44:07;;;;;;;;;;;;;;;;;;1897184;28;7918;-67
2022/09/21 01:45:07;;;;;;;;;;;;;;;;;;1897029;28;7152;-67
2022/09/21 01:46:09;;;;;;;;;;;;;;;;;;1897556;28;7002;-69
2022/09/21 01:47:11;;;;;;;;;;;;;;;;;;1897464;28;7010;-69
2022/09/21 01:48:10;;;;;;;;;;;;;;;;;;1898112;28;7046;-65
2022/09/21 01:49:12;;;;;;;;;;;;;;;;;;1897991;28;7332;-67
2022/09/21 01:50:10;;;;;;;;;;;;;;;;;;1897619;28;7443;-68
2022/09/21 01:51:11;;;;;;;;;;;;;;;;;;1897450;28;8094;-68
2022/09/21 01:52:18;;;;;;;;;;;;;;;;;;1897973;28;7113;-67
2022/09/21 01:53:31;;;;;;;;;;;;;;;;;;1897778;28;7017;-68
2022/09/21 01:54:37;;;;;;;;;;;;;;;;;;1897548;28;7005;-67
2022/09/21 01:56:07;;;;;;;;;;;;;;;;;;1896917;28;7367;-68
2022/09/21 01:57:16;;;;;;;;;;;;;;;;;;1897368;28;7260;-67
2022/09/21 01:58:22;;;;;;;;;;;;;;;;;;1896436;28;8035;-69
2022/09/21 01:59:35;;;;;;;;;;;;;;;;;;1897797;28;7005;-68
2022/09/21 02:00:34;;;;;;;;;;;;;;;;;;1896384;28;7037;-68
2022/09/21 02:01:37;;;;;;;;;;;;;;;;;;1898079;28;7097;-68
2022/09/21 02:02:43;;;;;;;;;;;;;;;;;;1898306;28;7092;-67
2022/09/21 02:03:45;;;;;;;;;;;;;;;;;;1897957;28;7128;-67
2022/09/21 02:04:42;;;;;;;;;;;;;;;;;;1898044;28;8042;-66
2022/09/21 02:05:41;;;;;;;;;;;;;;;;;;1897420;28;7005;-67
2022/09/21 02:06:44;;;;;;;;;;;;;;;;;;1896065;28;7035;-66
2022/09/21 02:07:42;;;;;;;;;;;;;;;;;;1896132;28;7030;-66
2022/09/21 02:08:40;;;;;;;;;;;;;;;;;;1897582;28;7088;-68
2022/09/21 02:09:38;;;;;;;;;;;;;;;;;;1897246;28;7005;-68
2022/09/21 02:10:40;;;;;;;;;;;;;;;;;;1897794;28;7030;-67
2022/09/21 02:11:41;;;;;;;;;;;;;;;;;;1897732;28;7001;-66
2022/09/21 02:12:39;;;;;;;;;;;;;;;;;;1898299;28;8043;-67
2022/09/21 02:13:38;;;;;;;;;;;;;;;;;;1896512;28;7044;-65
2022/09/21 02:14:37;;;;;;;;;;;;;;;;;;1897547;28;7010;-69
2022/09/21 02:15:57;;;;;;;;;;;;;;;;;;1904333;28;7053;-67
2022/09/21 02:16:55;;;;;;;;;;;;;;;;;;1888958;28;7093;-69
2022/09/21 02:18:02;;;;;;;;;;;;;;;;;;1895776;28;7109;-66
2022/09/21 02:19:11;;;;;;;;;;;;;;;;;;1896865;28;7042;-68
2022/09/21 02:20:11;;;;;;;;;;;;;;;;;;1897463;28;7144;-69
2022/09/21 02:21:40;;;;;;;;;;;;;;;;;;1896991;28;7009;-68
2022/09/21 02:22:45;;;;;;;;;;;;;;;;;;1873185;28;7341;-68
2022/09/21 02:23:50;;;;;;;;;;;;;;;;;;1880839;28;7018;-66
2022/09/21 02:25:04;;;;;;;;;;;;;;;;;;1896430;28;7022;-67
2022/09/21 02:26:11;;;;;;;;;;;;;;;;;;1897480;28;7010;-70
2022/09/21 02:27:36;;;;;;;;;;;;;;;;;;1898213;28;7096;-67
2022/09/21 02:28:51;;;;;;;;;;;;;;;;;;1897252;28;7045;-65
2022/09/21 02:30:01;;;;;;;;;;;;;;;;;;1897622;28;7356;-66
2022/09/21 02:31:06;;;;;;;;;;;;;;;;;;1897755;28;8031;-67
2022/09/21 02:32:22;;;;;;;;;;;;;;;;;;1896843;28;7010;-68
2022/09/21 02:33:34;;;;;;;;;;;;;;;;;;1897209;28;7061;-67
2022/09/21 02:34:39;;;;;;;;;;;;;;;;;;1897614;28;7005;-66
2022/09/21 02:36:00;;;;;;;;;;;;;;;;;;1897365;28;7305;-69
2022/09/21 02:37:01;;;;;;;;;;;;;;;;;;1896225;28;7009;-67
2022/09/21 02:38:08;;;;;;;;;;;;;;;;;;1897822;28;7042;-69
2022/09/21 02:39:10;;;;;;;;;;;;;;;;;;1897292;28;7021;-68
2022/09/21 02:40:28;;;;;;;;;;;;;;;;;;1897189;28;7037;-67
2022/09/21 02:41:35;;;;;;;;;;;;;;;;;;1865348;29;7148;-67
2022/09/21 02:42:37;;;;;;;;;;;;;;;;;;1893545;28;7116;-67
2022/09/21 02:43:45;;;;;;;;;;;;;;;;;;1897473;28;7038;-66
2022/09/21 02:44:51;;;;;;;;;;;;;;;;;;1897253;28;7304;-69
2022/09/21 02:46:04;;;;;;;;;;;;;;;;;;1897381;28;7085;-70
2022/09/21 02:47:18;;;;;;;;;;;;;;;;;;1896799;28;7005;-67
2022/09/21 02:48:20;;;;;;;;;;;;;;;;;;1897380;28;7041;-67
2022/09/21 02:49:22;;;;;;;;;;;;;;;;;;1896137;28;8035;-66
2022/09/21 02:50:23;;;;;;;;;;;;;;;;;;1895862;28;7041;-68
2022/09/21 02:51:32;;;;;;;;;;;;;;;;;;1897478;28;7089;-67
2022/09/21 02:52:33;;;;;;;;;;;;;;;;;;1897471;28;7045;-69
2022/09/21 02:53:35;;;;;;;;;;;;;;;;;;1897399;28;8051;-67
2022/09/21 02:54:34;;;;;;;;;;;;;;;;;;1897351;28;8039;-67
2022/09/21 02:55:33;;;;;;;;;;;;;;;;;;1897378;28;8018;-66
2022/09/21 02:56:31;;;;;;;;;;;;;;;;;;1897628;28;7173;-68
2022/09/21 02:57:29;;;;;;;;;;;;;;;;;;1897265;28;7009;-67
2022/09/21 02:58:29;;;;;;;;;;;;;;;;;;1897796;28;8159;-68
2022/09/21 02:59:27;;;;;;;;;;;;;;;;;;1897817;28;7117;-66
2022/09/21 03:00:25;;;;;;;;;;;;;;;;;;1896623;28;7120;-68
2022/09/21 03:01:25;;;;;;;;;;;;;;;;;;1897366;28;8023;-67
2022/09/21 03:02:23;;;;;;;;;;;;;;;;;;1897263;28;7013;-66
2022/09/21 03:03:23;;;;;;;;;;;;;;;;;;1903041;28;7861;-66
2022/09/21 03:04:22;;;;;;;;;;;;;;;;;;1896633;28;7005;-66
2022/09/21 03:05:19;;;;;;;;;;;;;;;;;;1895835;28;7013;-65
2022/09/21 03:06:16;;;;;;;;;;;;;;;;;;1896971;28;7002;-66
2022/09/21 03:07:15;;;;;;;;;;;;;;;;;;1896140;28;7038;-70
2022/09/21 03:08:13;;;;;;;;;;;;;;;;;;1894729;28;7025;-69
2022/09/21 03:09:10;;;;;;;;;;;;;;;;;;1895520;28;7010;-68
2022/09/21 03:10:08;;;;;;;;;;;;;;;;;;1897669;28;7113;-67
2022/09/21 03:11:06;;;;;;;;;;;;;;;;;;1896851;28;7017;-68
2022/09/21 03:12:03;;;;;;;;;;;;;;;;;;1896190;28;7006;-66
2022/09/21 03:13:01;;;;;;;;;;;;;;;;;;1897111;28;7096;-68
2022/09/21 03:13:58;;;;;;;;;;;;;;;;;;1896173;28;7058;-66
2022/09/21 03:14:56;;;;;;;;;;;;;;;;;;1896526;28;7030;-67
2022/09/21 03:16:04;;;;;;;;;;;;;;;;;;1896241;28;7006;-67
2022/09/21 03:17:02;;;;;;;;;;;;;;;;;;1896838;28;7144;-66
2022/09/21 03:17:59;;;;;;;;;;;;;;;;;;1897002;28;7014;-68
2022/09/21 03:18:57;;;;;;;;;;;;;;;;;;1897376;28;7005;-69
2022/09/21 03:19:54;;;;;;;;;;;;;;;;;;1897419;28;7036;-67
2022/09/21 03:20:52;;;;;;;;;;;;;;;;;;1897676;28;7001;-68
2022/09/21 03:21:49;;;;;;;;;;;;;;;;;;1897835;28;7112;-68
2022/09/21 03:22:46;;;;;;;;;;;;;;;;;;1896972;28;7220;-67
2022/09/21 03:23:44;;;;;;;;;;;;;;;;;;1897109;28;7097;-69
2022/09/21 03:24:47;;;;;;;;;;;;;;;;;;1897204;28;7747;-67
2022/09/21 03:25:45;;;;;;;;;;;;;;;;;;1896912;28;7005;-67
2022/09/21 03:26:42;;;;;;;;;;;;;;;;;;1896833;28;7088;-66
2022/09/21 03:27:40;;;;;;;;;;;;;;;;;;1897232;28;7092;-66
2022/09/21 03:28:37;;;;;;;;;;;;;;;;;;1897632;28;7177;-66
2022/09/21 03:29:34;;;;;;;;;;;;;;;;;;1897558;28;7124;-67
2022/09/21 03:30:32;;;;;;;;;;;;;;;;;;1896100;28;7038;-68
2022/09/21 03:31:30;;;;;;;;;;;;;;;;;;1897466;28;7108;-69
2022/09/21 03:32:28;;;;;;;;;;;;;;;;;;1897336;28;7002;-67
2022/09/21 03:33:25;;;;;;;;;;;;;;;;;;1895427;28;7005;-67
2022/09/21 03:34:23;;;;;;;;;;;;;;;;;;1896991;28;7225;-67
2022/09/21 03:35:22;;;;;;;;;;;;;;;;;;1897694;28;7421;-67
2022/09/21 03:36:20;;;;;;;;;;;;;;;;;;1897604;28;7002;-68
2022/09/21 03:37:17;;;;;;;;;;;;;;;;;;1896568;28;7002;-67
2022/09/21 03:38:15;;;;;;;;;;;;;;;;;;1896579;28;7002;-67
2022/09/21 03:39:13;;;;;;;;;;;;;;;;;;1896705;28;7006;-66
2022/09/21 03:40:11;;;;;;;;;;;;;;;;;;1895479;28;7038;-67
2022/09/21 03:41:09;;;;;;;;;;;;;;;;;;1896096;28;7005;-67
2022/09/21 03:42:08;;;;;;;;;;;;;;;;;;1896053;28;7100;-69
2022/09/21 03:43:05;;;;;;;;;;;;;;;;;;1896941;28;8020;-66
2022/09/21 03:44:02;;;;;;;;;;;;;;;;;;1895979;28;7022;-65
2022/09/21 03:45:00;;;;;;;;;;;;;;;;;;1897206;28;7006;-67
2022/09/21 03:45:58;;;;;;;;;;;;;;;;;;1895793;28;7013;-68
2022/09/21 03:46:57;;;;;;;;;;;;;;;;;;1903857;28;7009;-67
2022/09/21 03:47:56;;;;;;;;;;;;;;;;;;1903329;28;7010;-67
2022/09/21 03:48:53;;;;;;;;;;;;;;;;;;1896832;28;8100;-70
2022/09/21 03:49:50;;;;;;;;;;;;;;;;;;1896764;28;7046;-67
2022/09/21 03:50:48;;;;;;;;;;;;;;;;;;1895872;28;7014;-67
2022/09/21 03:51:45;;;;;;;;;;;;;;;;;;1897097;28;7021;-69
2022/09/21 03:52:43;;;;;;;;;;;;;;;;;;1897397;28;7656;-67
2022/09/21 03:53:40;;;;;;;;;;;;;;;;;;1896992;28;7046;-67
2022/09/21 03:54:37;;;;;;;;;;;;;;;;;;1896194;28;7105;-67
2022/09/21 03:55:36;;;;;;;;;;;;;;;;;;1896978;28;7360;-68
2022/09/21 03:56:33;;;;;;;;;;;;;;;;;;1897572;28;7009;-68
2022/09/21 03:57:31;;;;;;;;;;;;;;;;;;1897518;28;7009;-68
2022/09/21 03:58:28;;;;;;;;;;;;;;;;;;1896783;28;8075;-68
2022/09/21 03:59:26;;;;;;;;;;;;;;;;;;1895741;28;7010;-67
2022/09/21 04:00:23;;;;;;;;;;;;;;;;;;1895931;28;7132;-68
2022/09/21 04:01:21;;;;;;;;;;;;;;;;;;1896125;28;7009;-68
2022/09/21 04:02:19;;;;;;;;;;;;;;;;;;1897148;28;7005;-68
2022/09/21 04:03:16;;;;;;;;;;;;;;;;;;1897552;28;7042;-66
2022/09/21 04:04:15;;;;;;;;;;;;;;;;;;1897067;28;7009;-66
2022/09/21 04:05:14;;;;;;;;;;;;;;;;;;1897102;28;7021;-67
2022/09/21 04:06:11;;;;;;;;;;;;;;;;;;1896885;28;7045;-67
2022/09/21 04:07:09;;;;;;;;;;;;;;;;;;1896793;28;7025;-66
2022/09/21 04:08:07;;;;;;;;;;;;;;;;;;1897232;28;7010;-68
2022/09/21 04:09:04;;;;;;;;;;;;;;;;;;1897057;28;7157;-67
2022/09/21 04:10:03;;;;;;;;;;;;;;;;;;1897392;28;7018;-68
2022/09/21 04:11:01;;;;;;;;;;;;;;;;;;1897573;28;7014;-67
2022/09/21 04:11:58;;;;;;;;;;;;;;;;;;1897039;28;7025;-66
2022/09/21 04:12:56;;;;;;;;;;;;;;;;;;1897373;28;7001;-68
2022/09/21 04:13:55;;;;;;;;;;;;;;;;;;1896335;28;7109;-68
2022/09/21 04:14:53;;;;;;;;;;;;;;;;;;1896796;28;7050;-68
2022/09/21 04:15:50;;;;;;;;;;;;;;;;;;1897159;28;7025;-66
2022/09/21 04:16:50;;;;;;;;;;;;;;;;;;1897338;28;7009;-67
2022/09/21 04:17:52;;;;;;;;;;;;;;;;;;1896379;28;7038;-68
2022/09/21 04:18:49;;;;;;;;;;;;;;;;;;1896498;28;7042;-67
2022/09/21 04:19:47;;;;;;;;;;;;;;;;;;1896320;28;7035;-69
2022/09/21 04:20:44;;;;;;;;;;;;;;;;;;1897074;28;7006;-66
2022/09/21 04:21:42;;;;;;;;;;;;;;;;;;1896775;28;7026;-67
2022/09/21 04:22:39;;;;;;;;;;;;;;;;;;1896522;28;7037;-68
2022/09/21 04:23:40;;;;;;;;;;;;;;;;;;1896951;28;7009;-68
2022/09/21 04:24:41;;;;;;;;;;;;;;;;;;1897052;28;7006;-67
2022/09/21 04:25:38;;;;;;;;;;;;;;;;;;1897281;28;7173;-67
2022/09/21 04:26:36;;;;;;;;;;;;;;;;;;1897210;28;7084;-66
2022/09/21 04:27:33;;;;;;;;;;;;;;;;;;1896689;28;7125;-66
2022/09/21 04:28:31;;;;;;;;;;;;;;;;;;1897151;28;7021;-68
2022/09/21 04:29:29;;;;;;;;;;;;;;;;;;1896776;28;7120;-67
2022/09/21 04:30:26;;;;;;;;;;;;;;;;;;1896937;28;7089;-69
2022/09/21 04:31:25;;;;;;;;;;;;;;;;;;1896759;28;7017;-68
2022/09/21 04:32:22;;;;;;;;;;;;;;;;;;1895986;28;7030;-67
2022/09/21 04:33:20;;;;;;;;;;;;;;;;;;1896987;28;7116;-67
2022/09/21 04:34:18;;;;;;;;;;;;;;;;;;1896924;28;7034;-68
2022/09/21 04:35:15;;;;;;;;;;;;;;;;;;1896478;28;7038;-65
2022/09/21 04:36:13;;;;;;;;;;;;;;;;;;1897123;28;7358;-67
2022/09/21 04:37:10;;;;;;;;;;;;;;;;;;1896945;28;7009;-68
2022/09/21 04:38:08;;;;;;;;;;;;;;;;;;1896903;28;7113;-68
2022/09/21 04:39:05;;;;;;;;;;;;;;;;;;1897207;28;7092;-66
2022/09/21 04:40:03;;;;;;;;;;;;;;;;;;1895475;28;7093;-68
2022/09/21 04:41:02;;;;;;;;;;;;;;;;;;1897100;28;7026;-67
2022/09/21 04:42:00;;;;;;;;;;;;;;;;;;1896743;28;7017;-68
2022/09/21 04:42:58;;;;;;;;;;;;;;;;;;1896613;28;7014;-67
2022/09/21 04:43:55;;;;;;;;;;;;;;;;;;1896694;28;7100;-67
2022/09/21 04:44:52;;;;;;;;;;;;;;;;;;1897085;28;7068;-67
2022/09/21 04:45:50;;;;;;;;;;;;;;;;;;1897099;28;7153;-68
2022/09/21 04:46:48;;;;;;;;;;;;;;;;;;1895851;28;7021;-68
2022/09/21 04:47:45;;;;;;;;;;;;;;;;;;1896515;28;7017;-66
2022/09/21 04:48:42;;;;;;;;;;;;;;;;;;1897052;28;7088;-66
2022/09/21 04:49:40;;;;;;;;;;;;;;;;;;1896639;28;7435;-65
2022/09/21 04:50:37;;;;;;;;;;;;;;;;;;1897199;28;7021;-66
2022/09/21 04:51:35;;;;;;;;;;;;;;;;;;1897265;28;7339;-67
2022/09/21 04:52:32;;;;;;;;;;;;;;;;;;1895880;28;7112;-67
2022/09/21 04:53:30;;;;;;;;;;;;;;;;;;1896129;28;7002;-67
2022/09/21 04:54:27;;;;;;;;;;;;;;;;;;1896964;28;7005;-68
2022/09/21 04:55:24;;;;;;;;;;;;;;;;;;1897334;28;7120;-66
2022/09/21 04:56:22;;;;;;;;;;;;;;;;;;1897120;28;7022;-67
2022/09/21 04:57:19;;;;;;;;;;;;;;;;;;1896842;28;7213;-68
2022/09/21 04:58:16;;;;;;;;;;;;;;;;;;1897052;28;7052;-68
2022/09/21 04:59:20;;;;;;;;;;;;;;;;;;1897365;28;7073;-67
2022/09/21 05:00:18;;;;;;;;;;;;;;;;;;1897021;28;7096;-67
2022/09/21 05:01:15;;;;;;;;;;;;;;;;;;1896816;28;7046;-68
2022/09/21 05:02:13;;;;;;;;;;;;;;;;;;1897038;28;7050;-67
2022/09/21 05:03:10;;;;;;;;;;;;;;;;;;1896259;28;7029;-67
2022/09/21 05:04:07;;;;;;;;;;;;;;;;;;1896266;28;7125;-67
2022/09/21 05:05:05;;;;;;;;;;;;;;;;;;1898437;28;7081;-67
2022/09/21 05:06:02;;;;;;;;;;;;;;;;;;1898536;28;7009;-68
2022/09/21 05:07:00;;;;;;;;;;;;;;;;;;1898369;28;6998;-65
2022/09/21 05:07:57;;;;;;;;;;;;;;;;;;1898430;28;7300;-68
2022/09/21 05:10:11;;;;;;;;;;;;;;;;;;1898117;28;7292;-67
2022/09/21 05:11:14;;;;;;;;;;;;;;;;;;1898576;28;7029;-67
2022/09/21 05:12:12;;;;;;;;;;;;;;;;;;1898462;28;7100;-68
2022/09/21 05:13:09;;;;;;;;;;;;;;;;;;1897961;28;7033;-67
2022/09/21 05:14:07;;;;;;;;;;;;;;;;;;1897330;28;7005;-67
2022/09/21 05:15:05;;;;;;;;;;;;;;;;;;1897306;28;7129;-69
2022/09/21 05:16:02;;;;;;;;;;;;;;;;;;1897501;28;7014;-68
2022/09/21 05:17:00;;;;;;;;;;;;;;;;;;1897465;28;7046;-65
2022/09/21 05:17:57;;;;;;;;;;;;;;;;;;1897881;28;7009;-67
2022/09/21 05:18:55;;;;;;;;;;;;;;;;;;1898006;28;7030;-67
2022/09/21 05:19:52;;;;;;;;;;;;;;;;;;1898101;28;7006;-67
2022/09/21 05:20:56;;;;;;;;;;;;;;;;;;1898346;28;8249;-67
2022/09/21 05:21:54;;;;;;;;;;;;;;;;;;1898640;28;8047;-69
2022/09/21 05:22:51;;;;;;;;;;;;;;;;;;1899203;28;8070;-66
2022/09/21 05:23:48;;;;;;;;;;;;;;;;;;1898156;28;7009;-66
2022/09/21 05:24:46;;;;;;;;;;;;;;;;;;1898556;28;7113;-68
2022/09/21 05:25:43;;;;;;;;;;;;;;;;;;1898310;28;8093;-67
2022/09/21 05:26:41;;;;;;;;;;;;;;;;;;1898605;28;7009;-67
2022/09/21 05:27:38;;;;;;;;;;;;;;;;;;1898130;28;8219;-67
2022/09/21 05:28:36;;;;;;;;;;;;;;;;;;1905327;28;7025;-68
2022/09/21 05:29:36;;;;;;;;;;;;;;;;;;1904593;28;7160;-68
2022/09/21 05:30:34;;;;;;;;;;;;;;;;;;1898956;28;7209;-69
2022/09/21 05:31:37;;;;;;;;;;;;;;;;;;1894614;28;7025;-67
2022/09/21 05:32:44;;;;;;;;;;;;;;;;;;1889659;28;7043;-68
2022/09/21 05:33:49;;;;;;;;;;;;;;;;;;1897212;28;7009;-69
2022/09/21 05:35:05;;;;;;;;;;;;;;;;;;1898211;28;7266;-69
2022/09/21 05:36:11;;;;;;;;;;;;;;;;;;1897748;28;7009;-68
2022/09/21 05:37:14;;;;;;;;;;;;;;;;;;1898051;28;7010;-69
2022/09/21 05:38:16;;;;;;;;;;;;;;;;;;1897750;28;7093;-66
2022/09/21 05:39:14;;;;;;;;;;;;;;;;;;1897804;28;7025;-68
2022/09/21 05:40:12;;;;;;;;;;;;;;;;;;1898238;28;8031;-67
2022/09/21 05:41:10;;;;;;;;;;;;;;;;;;1897393;28;7096;-67
2022/09/21 05:42:09;;;;;;;;;;;;;;;;;;1897273;28;7089;-67
2022/09/21 05:43:07;;;;;;;;;;;;;;;;;;1898430;28;9400;-69
2022/09/21 05:44:04;;;;;;;;;;;;;;;;;;1897258;28;7110;-68
2022/09/21 05:45:02;;;;;;;;;;;;;;;;;;1898138;28;7009;-67
2022/09/21 05:46:12;;;;;;;;;;;;;;;;;;1897879;28;7062;-67
2022/09/21 05:47:39;;;;;;;;;;;;;;;;;;1897793;28;7026;-68
2022/09/21 05:48:41;;;;;;;;;;;;;;;;;;1881095;28;7014;-69
2022/09/21 05:49:48;;;;;;;;;;;;;;;;;;1897431;28;7009;-67
2022/09/21 05:51:08;;;;;;;;;;;;;;;;;;1897997;28;7010;-68
2022/09/21 05:52:13;;;;;;;;;;;;;;;;;;1890041;28;7010;-69
2022/09/21 05:53:28;;;;;;;;;;;;;;;;;;1898350;28;7050;-68
2022/09/21 05:54:41;;;;;;;;;;;;;;;;;;1897646;28;8024;-68
2022/09/21 05:55:38;;;;;;;;;;;;;;;;;;1897943;28;7074;-67
2022/09/21 05:56:41;;;;;;;;;;;;;;;;;;1897881;28;7109;-68
2022/09/21 05:57:42;;;;;;;;;;;;;;;;;;1898740;28;7013;-67
2022/09/21 05:59:10;;;;;;;;;;;;;;;;;;1898000;28;7009;-66
2022/09/21 06:00:15;;;;;;;;;;;;;;;;;;1898146;28;7201;-67
2022/09/21 06:01:25;;;;;;;;;;;;;;;;;;1896306;28;7089;-67
2022/09/21 06:02:45;;;;;;;;;;;;;;;;;;1897744;28;7005;-67
2022/09/21 06:03:43;;;;;;;;;;;;;;;;;;1897382;28;7024;-67
2022/09/21 06:04:40;;;;;;;;;;;;;;;;;;1897807;28;7121;-68
2022/09/21 06:05:44;;;;;;;;;;;;;;;;;;1897615;28;7033;-67
2022/09/21 06:06:41;;;;;;;;;;;;;;;;;;1898023;28;7045;-68
2022/09/21 06:07:40;;;;;;;;;;;;;;;;;;1897938;28;7001;-67
2022/09/21 06:08:37;;;;;;;;;;;;;;;;;;1897794;28;7013;-68
2022/09/21 06:09:35;;;;;;;;;;;;;;;;;;1897414;28;7022;-68
2022/09/21 06:10:38;;;;;;;;;;;;;;;;;;1897836;28;7061;-69
2022/09/21 06:11:35;;;;;;;;;;;;;;;;;;1897004;28;7236;-67
2022/09/21 06:12:33;;;;;;;;;;;;;;;;;;1896853;28;7002;-66
2022/09/21 06:13:31;;;;;;;;;;;;;;;;;;1896694;28;7010;-69
2022/09/21 06:14:28;;;;;;;;;;;;;;;;;;1898078;28;7002;-70
2022/09/21 06:15:25;;;;;;;;;;;;;;;;;;1897283;28;7006;-67
2022/09/21 06:16:23;;;;;;;;;;;;;;;;;;1896573;28;7263;-68
2022/09/21 06:17:21;;;;;;;;;;;;;;;;;;1894753;28;7116;-66
2022/09/21 06:18:18;;;;;;;;;;;;;;;;;;1896915;28;7042;-67
2022/09/21 06:19:15;;;;;;;;;;;;;;;;;;1896924;28;7014;-68
2022/09/21 06:20:13;;;;;;;;;;;;;;;;;;1896647;28;7130;-66
2022/09/21 06:21:10;;;;;;;;;;;;;;;;;;1896431;28;7009;-69
2022/09/21 06:22:08;;;;;;;;;;;;;;;;;;1897799;28;7022;-67
2022/09/21 06:23:10;;;;;;;;;;;;;;;;;;1897715;28;7042;-69
2022/09/21 06:24:07;;;;;;;;;;;;;;;;;;1895539;28;7488;-69
2022/09/21 06:25:05;;;;;;;;;;;;;;;;;;1895817;28;7017;-68
2022/09/21 06:26:02;;;;;;;;;;;;;;;;;;1897056;28;7057;-68
2022/09/21 06:27:00;;;;;;;;;;;;;;;;;;1904071;28;8104;-69
2022/09/21 06:28:01;;;;;;;;;;;;;;;;;;1904659;28;7021;-69
2022/09/21 06:28:59;;;;;;;;;;;;;;;;;;1897423;28;7038;-68
2022/09/21 06:29:56;;;;;;;;;;;;;;;;;;1898062;28;7312;-67
2022/09/21 06:30:54;;;;;;;;;;;;;;;;;;1897668;28;7034;-65
2022/09/21 06:31:52;;;;;;;;;;;;;;;;;;1897660;28;7021;-66
2022/09/21 06:32:49;;;;;;;;;;;;;;;;;;1897801;28;7096;-68
2022/09/21 06:33:46;;;;;;;;;;;;;;;;;;1897292;28;7089;-68
2022/09/21 06:34:44;;;;;;;;;;;;;;;;;;1897535;28;7131;-68
2022/09/21 06:35:41;;;;;;;;;;;;;;;;;;1897799;28;7093;-66
2022/09/21 06:36:39;;;;;;;;;;;;;;;;;;1898160;28;7018;-69
2022/09/21 06:37:39;;;;;;;;;;;;;;;;;;1897702;28;8034;-67
2022/09/21 06:38:36;;;;;;;;;;;;;;;;;;1897445;28;7025;-69
2022/09/21 06:39:33;;;;;;;;;;;;;;;;;;1897623;28;8043;-68
2022/09/21 06:40:31;;;;;;;;;;;;;;;;;;1897427;28;7062;-67
2022/09/21 06:41:29;;;;;;;;;;;;;;;;;;1895774;28;7096;-69
2022/09/21 06:42:26;;;;;;;;;;;;;;;;;;1896619;28;7021;-68
2022/09/21 06:43:24;;;;;;;;;;;;;;;;;;1896437;28;7018;-69
2022/09/21 06:44:21;;;;;;;;;;;;;;;;;;1898094;28;7010;-68
2022/09/21 06:45:18;;;;;;;;;;;;;;;;;;1896601;28;7030;-68
2022/09/21 06:46:16;;;;;;;;;;;;;;;;;;1895987;28;7017;-66
2022/09/21 06:47:13;;;;;;;;;;;;;;;;;;1896657;28;7092;-68
2022/09/21 06:48:10;;;;;;;;;;;;;;;;;;1896582;28;7376;-67
2022/09/21 06:49:08;;;;;;;;;;;;;;;;;;1896940;28;7017;-66
2022/09/21 06:50:05;;;;;;;;;;;;;;;;;;1897750;28;7014;-66
2022/09/21 06:51:04;;;;;;;;;;;;;;;;;;1895871;28;7013;-68
2022/09/21 06:52:03;;;;;;;;;;;;;;;;;;1897184;28;7006;-68
2022/09/21 06:53:01;;;;;;;;;;;;;;;;;;1897188;28;7009;-67
2022/09/21 06:54:00;;;;;;;;;;;;;;;;;;1897326;28;7005;-69
2022/09/21 06:54:57;;;;;;;;;;;;;;;;;;1897410;28;7081;-67
2022/09/21 06:56:05;;;;;;;;;;;;;;;;;;1897359;28;7320;-68
2022/09/21 06:57:02;;;;;;;;;;;;;;;;;;1897320;28;7113;-67
2022/09/21 06:58:01;;;;;;;;;;;;;;;;;;1897968;28;7037;-68
2022/09/21 06:58:58;;;;;;;;;;;;;;;;;;1897589;28;7116;-67
2022/09/21 06:59:55;;;;;;;;;;;;;;;;;;1897660;28;7038;-67
2022/09/21 07:00:53;;;;;;;;;;;;;;;;;;1897650;28;8040;-67
2022/09/21 07:01:51;;;;;;;;;;;;;;;;;;1897789;28;7013;-67